Terminal Aerodrome Forecast
Issued by NWS Charleston, SC

Home | Current Version | Previous Version | Text Only | Print | Product List | Glossary On
Versions: 1 2 3 4 5 6 7 8 9 10 11 12 13
000
FTUS42 KCHS 242330
TAFSAV
TAF
KSAV 242330Z 2500/2524 10010KT P6SM SCT030 BKN050
     FM250500 08005KT P6SM SCT015 BKN030
     FM251400 13010KT P6SM BKN035
     FM251800 14012G18KT P6SM BKN050=

USA.gov is the U.S. government's official web portal to all federal, state and local government web resources and services.